Time;durP1;ratioP1;P1;durP2;ratioP2;P2;SDS_P1;SDS_P2;PMS_P1;PMS_P2;Temp;Humidity;BMP_temperature;BMP_pressure;BME280_temperature;BME280_humidity;BME280_pressure;Samples;Min_cycle;Max_cycle;Signal;HPM_P1;HPM_P2
2022/11/28 00:00:04;;;;;;;244.00;70.63;;;;;;;;;;5130399;27;20091;-45
2022/11/28 00:02:37;;;;;;;193.55;61.60;;;;;;;;;;5130057;27;20134;-45
2022/11/28 00:05:04;;;;;;;190.02;62.00;;;;;;;;;;5130505;27;20047;-46
2022/11/28 00:07:31;;;;;;;190.55;61.97;;;;;;;;;;5127813;27;20035;-47
2022/11/28 00:09:58;;;;;;;196.80;63.50;;;;;;;;;;5127790;27;20035;-45
2022/11/28 00:12:25;;;;;;;219.18;62.75;;;;;;;;;;5130240;27;20042;-49
2022/11/28 00:14:51;;;;;;;194.93;60.65;;;;;;;;;;5130854;27;20039;-45
2022/11/28 00:17:18;;;;;;;199.20;62.53;;;;;;;;;;5130028;27;20104;-48
2022/11/28 00:19:44;;;;;;;173.52;55.00;;;;;;;;;;5129363;27;20031;-46
2022/11/28 00:22:10;;;;;;;179.52;58.53;;;;;;;;;;5129148;27;20043;-45
2022/11/28 00:24:38;;;;;;;203.25;61.72;;;;;;;;;;5128327;27;20165;-47
2022/11/28 00:27:06;;;;;;;183.82;57.08;;;;;;;;;;5130052;27;20086;-44
2022/11/28 00:29:32;;;;;;;169.35;57.53;;;;;;;;;;5104147;27;20066;-44
2022/11/28 00:31:59;;;;;;;170.25;58.97;;;;;;;;;;5129499;27;20050;-46
2022/11/28 00:34:25;;;;;;;214.18;66.68;;;;;;;;;;5129130;27;20046;-45
2022/11/28 00:36:52;;;;;;;192.43;60.58;;;;;;;;;;5129361;27;20042;-49
2022/11/28 00:39:18;;;;;;;213.90;66.53;;;;;;;;;;5130035;27;20717;-46
2022/11/28 00:41:45;;;;;;;158.85;53.47;;;;;;;;;;5127707;27;20039;-46
2022/11/28 00:44:11;;;;;;;177.43;57.45;;;;;;;;;;5129594;27;20478;-48
2022/11/28 00:46:38;;;;;;;196.38;60.97;;;;;;;;;;5126913;27;20050;-46
2022/11/28 00:49:05;;;;;;;181.52;60.88;;;;;;;;;;5128354;27;20050;-46
2022/11/28 00:51:32;;;;;;;199.60;63.30;;;;;;;;;;5128822;27;20039;-45
2022/11/28 00:54:00;;;;;;;201.63;62.95;;;;;;;;;;5127350;27;20043;-46
2022/11/28 00:56:27;;;;;;;201.27;61.22;;;;;;;;;;5128710;27;20050;-45
2022/11/28 00:58:54;;;;;;;203.40;62.05;;;;;;;;;;5128871;27;20046;-46
2022/11/28 01:01:23;;;;;;;204.63;60.33;;;;;;;;;;5129499;27;20037;-48
2022/11/28 01:03:50;;;;;;;197.02;60.03;;;;;;;;;;5125239;27;20043;-46
2022/11/28 01:06:20;;;;;;;208.02;61.97;;;;;;;;;;5129859;27;20042;-46
2022/11/28 01:08:47;;;;;;;194.98;60.35;;;;;;;;;;5129354;27;20047;-46
2022/11/28 01:11:13;;;;;;;202.93;62.08;;;;;;;;;;5128596;27;20043;-46
2022/11/28 01:13:40;;;;;;;179.38;60.53;;;;;;;;;;5129187;27;20047;-50
2022/11/28 01:16:07;;;;;;;255.57;69.32;;;;;;;;;;5128253;27;20404;-46
2022/11/28 01:18:34;;;;;;;215.02;64.63;;;;;;;;;;5126877;27;20043;-48
2022/11/28 01:21:00;;;;;;;205.60;64.88;;;;;;;;;;5128917;27;20042;-47
2022/11/28 01:23:27;;;;;;;200.32;61.90;;;;;;;;;;5128424;27;20039;-48
2022/11/28 01:25:54;;;;;;;201.30;62.42;;;;;;;;;;5128047;27;20031;-48
2022/11/28 01:28:20;;;;;;;193.65;59.58;;;;;;;;;;5128587;27;20099;-48
2022/11/28 01:30:47;;;;;;;207.80;61.40;;;;;;;;;;5126327;27;20027;-50
2022/11/28 01:33:13;;;;;;;184.35;59.53;;;;;;;;;;5129239;27;20131;-46
2022/11/28 01:35:40;;;;;;;166.50;57.30;;;;;;;;;;5128011;27;20046;-51
2022/11/28 01:38:06;;;;;;;188.05;59.53;;;;;;;;;;5128661;27;20491;-45
2022/11/28 01:40:33;;;;;;;199.27;62.28;;;;;;;;;;5127423;27;20043;-45
2022/11/28 01:42:59;;;;;;;217.57;63.72;;;;;;;;;;5128896;27;20488;-45
2022/11/28 01:45:30;;;;;;;232.52;65.82;;;;;;;;;;5129093;27;20118;-46
2022/11/28 01:47:59;;;;;;;207.93;62.78;;;;;;;;;;5129295;27;20065;-47
2022/11/28 01:50:26;;;;;;;233.60;69.00;;;;;;;;;;5128349;27;20414;-44
2022/11/28 01:52:54;;;;;;;196.95;61.33;;;;;;;;;;5128432;27;20038;-45
2022/11/28 01:55:23;;;;;;;197.48;60.92;;;;;;;;;;5128346;27;20063;-45
2022/11/28 01:57:51;;;;;;;213.43;63.78;;;;;;;;;;5127913;28;20052;-45
2022/11/28 02:00:18;;;;;;;227.93;66.85;;;;;;;;;;5129644;27;20058;-47
2022/11/28 02:02:53;;;;;;;274.10;72.22;;;;;;;;;;5127953;27;20055;-45
2022/11/28 02:05:20;;;;;;;201.95;60.92;;;;;;;;;;5125190;27;20035;-47
2022/11/28 02:07:46;;;;;;;211.40;61.95;;;;;;;;;;5127985;27;20039;-45
2022/11/28 02:10:18;;;;;;;231.43;64.00;;;;;;;;;;5127303;27;20043;-47
2022/11/28 02:13:03;;;;;;;215.63;62.20;;;;;;;;;;5127616;27;20049;-46
2022/11/28 02:15:38;;;;;;;229.70;65.38;;;;;;;;;;5126589;27;20092;-47
2022/11/28 02:18:37;;;;;;;205.60;63.00;;;;;;;;;;5126896;27;20039;-46
2022/11/28 02:21:23;;;;;;;198.63;63.38;;;;;;;;;;5025033;28;20057;-46
2022/11/28 02:23:50;;;;;;;208.40;62.28;;;;;;;;;;5027025;28;20116;-45
2022/11/28 02:26:35;;;;;;;221.80;63.72;;;;;;;;;;5025571;28;20041;-45
2022/11/28 02:29:15;;;;;;;208.18;63.15;;;;;;;;;;5025636;28;20033;-47
2022/11/28 02:31:41;;;;;;;215.32;63.38;;;;;;;;;;5027884;28;20062;-49
2022/11/28 02:34:15;;;;;;;248.25;68.82;;;;;;;;;;5027719;28;20125;-45
2022/11/28 02:36:41;;;;;;;220.95;63.10;;;;;;;;;;5027623;28;20815;-45
2022/11/28 02:39:29;;;;;;;211.57;61.65;;;;;;;;;;5028567;28;20049;-49
2022/11/28 02:42:07;;;;;;;209.55;58.97;;;;;;;;;;5028991;28;20775;-46
2022/11/28 02:44:41;;;;;;;168.50;56.13;;;;;;;;;;5026540;28;20111;-45
2022/11/28 02:47:10;;;;;;;184.20;56.83;;;;;;;;;;5027539;28;20081;-46
2022/11/28 02:49:44;;;;;;;220.85;61.55;;;;;;;;;;5023934;28;20058;-46
2022/11/28 02:52:13;;;;;;;182.15;55.72;;;;;;;;;;5027626;28;20133;-45
2022/11/28 02:54:40;;;;;;;300.08;71.88;;;;;;;;;;5026985;28;20049;-45
2022/11/28 02:57:07;;;;;;;168.38;54.30;;;;;;;;;;5095676;27;20124;-45
2022/11/28 02:59:37;;;;;;;226.40;65.78;;;;;;;;;;5131418;27;20039;-49
2022/11/28 03:02:05;;;;;;;195.18;58.38;;;;;;;;;;5131128;27;20075;-46
2022/11/28 03:04:31;;;;;;;187.05;57.28;;;;;;;;;;5130855;27;20039;-47
2022/11/28 03:07:03;;;;;;;189.98;60.70;;;;;;;;;;5131569;27;20522;-47
2022/11/28 03:09:29;;;;;;;234.68;65.00;;;;;;;;;;5131555;27;20043;-47
2022/11/28 03:12:08;;;;;;;202.70;60.50;;;;;;;;;;5132507;27;20051;-45
2022/11/28 03:14:41;;;;;;;199.27;58.03;;;;;;;;;;5131278;27;20039;-48
2022/11/28 03:17:40;;;;;;;182.55;57.00;;;;;;;;;;5127456;27;20491;-47
2022/11/28 03:20:16;;;;;;;193.10;57.22;;;;;;;;;;5024597;28;20128;-47
2022/11/28 03:23:02;;;;;;;213.68;59.30;;;;;;;;;;5003802;28;20049;-46
2022/11/28 03:25:35;;;;;;;163.00;53.90;;;;;;;;;;5019739;28;20505;-46
2022/11/28 03:28:04;;;;;;;195.98;55.85;;;;;;;;;;5027533;28;20045;-48
2022/11/28 03:30:30;;;;;;;314.25;74.43;;;;;;;;;;5027104;28;20046;-50
2022/11/28 03:32:59;;;;;;;199.45;62.53;;;;;;;;;;5025764;28;20053;-48
2022/11/28 03:35:29;;;;;;;243.02;70.07;;;;;;;;;;5026936;28;20045;-50
2022/11/28 03:38:01;;;;;;;207.30;68.60;;;;;;;;;;5027805;28;20068;-51
2022/11/28 03:40:31;;;;;;;264.95;72.15;;;;;;;;;;5026131;28;20055;-46
2022/11/28 03:43:00;;;;;;;187.40;58.47;;;;;;;;;;5025327;28;20042;-49
2022/11/28 03:45:29;;;;;;;201.38;62.58;;;;;;;;;;5027331;28;20046;-51
2022/11/28 03:48:00;;;;;;;201.25;58.97;;;;;;;;;;5024761;28;20057;-46
2022/11/28 03:50:36;;;;;;;208.63;61.40;;;;;;;;;;5026124;28;20537;-49
2022/11/28 03:53:06;;;;;;;173.68;54.65;;;;;;;;;;5026227;28;20808;-49
2022/11/28 03:55:42;;;;;;;199.43;59.53;;;;;;;;;;5067173;27;20052;-48
2022/11/28 03:58:27;;;;;;;174.45;56.55;;;;;;;;;;5129821;27;20109;-46
2022/11/28 04:00:59;;;;;;;173.45;54.50;;;;;;;;;;5129498;27;20035;-48
2022/11/28 04:03:34;;;;;;;205.07;59.40;;;;;;;;;;5127947;27;20460;-46
2022/11/28 04:06:03;;;;;;;193.15;57.10;;;;;;;;;;5131141;27;20039;-47
2022/11/28 04:08:31;;;;;;;210.00;60.33;;;;;;;;;;5130461;27;20095;-47
2022/11/28 04:11:05;;;;;;;177.07;55.90;;;;;;;;;;5128089;27;20043;-51
2022/11/28 04:13:41;;;;;;;170.88;53.85;;;;;;;;;;5127314;27;20058;-46
2022/11/28 04:16:13;;;;;;;174.77;55.63;;;;;;;;;;5130623;27;20085;-48
2022/11/28 04:18:49;;;;;;;192.00;56.55;;;;;;;;;;5129231;27;20050;-50
2022/11/28 04:21:20;;;;;;;159.02;52.30;;;;;;;;;;5130079;27;20043;-47
2022/11/28 04:23:48;;;;;;;270.63;66.75;;;;;;;;;;5129545;27;20047;-49
2022/11/28 04:26:31;;;;;;;171.15;54.47;;;;;;;;;;5125527;27;20581;-46
2022/11/28 04:28:59;;;;;;;169.68;52.75;;;;;;;;;;5129579;27;20498;-49
2022/11/28 04:31:25;;;;;;;164.25;51.47;;;;;;;;;;5129497;27;20483;-47
2022/11/28 04:33:55;;;;;;;167.82;50.85;;;;;;;;;;5128543;27;20043;-47
2022/11/28 04:36:23;;;;;;;189.85;53.10;;;;;;;;;;5127549;27;20031;-48
2022/11/28 04:38:55;;;;;;;180.23;54.70;;;;;;;;;;5129998;27;20043;-51
2022/11/28 04:41:28;;;;;;;175.38;52.00;;;;;;;;;;5129422;27;20112;-48
2022/11/28 04:43:59;;;;;;;168.73;50.73;;;;;;;;;;5127720;27;20035;-48
2022/11/28 04:46:30;;;;;;;193.57;56.92;;;;;;;;;;5125304;27;20479;-47
2022/11/28 04:48:56;;;;;;;180.57;52.15;;;;;;;;;;5129168;27;20688;-49
2022/11/28 04:51:26;;;;;;;187.45;51.25;;;;;;;;;;5100002;27;20050;-47
2022/11/28 04:54:00;;;;;;;174.57;55.22;;;;;;;;;;5129081;27;20400;-47
2022/11/28 04:56:30;;;;;;;203.60;57.25;;;;;;;;;;5127732;27;20032;-49
2022/11/28 04:58:57;;;;;;;174.98;52.20;;;;;;;;;;5129080;27;20035;-50
2022/11/28 05:01:25;;;;;;;184.32;53.13;;;;;;;;;;5129487;27;20115;-50
2022/11/28 05:03:52;;;;;;;224.85;57.95;;;;;;;;;;5129145;27;20096;-49
2022/11/28 05:06:25;;;;;;;327.02;66.72;;;;;;;;;;5128813;27;20063;-47
2022/11/28 05:08:52;;;;;;;;;;;;;;;;;;5129141;27;20122;-44
2022/11/28 05:11:19;;;;;;;188.77;51.88;;;;;;;;;;5128609;27;19919;-46
2022/11/28 05:13:45;;;;;;;211.35;55.65;;;;;;;;;;5127344;27;20051;-46
2022/11/28 05:16:16;;;;;;;190.18;52.70;;;;;;;;;;5128877;27;20506;-46
2022/11/28 05:18:43;;;;;;;188.77;53.40;;;;;;;;;;5128485;27;20047;-46
2022/11/28 05:21:09;;;;;;;172.60;49.65;;;;;;;;;;5111171;27;20092;-47
2022/11/28 05:23:37;;;;;;;201.95;55.45;;;;;;;;;;5128049;27;20568;-45
2022/11/28 05:26:08;;;;;;;208.15;56.22;;;;;;;;;;5127691;27;20084;-46
2022/11/28 05:28:34;;;;;;;195.52;55.28;;;;;;;;;;5125061;27;20046;-47
2022/11/28 05:31:01;;;;;;;218.55;57.30;;;;;;;;;;5128534;27;20035;-48
2022/11/28 05:33:29;;;;;;;211.23;56.40;;;;;;;;;;5110715;27;20047;-47
2022/11/28 05:35:56;;;;;;;198.07;54.28;;;;;;;;;;5128669;27;20122;-47
2022/11/28 05:38:22;;;;;;;235.35;58.08;;;;;;;;;;5127985;27;20043;-52
2022/11/28 05:40:49;;;;;;;204.32;55.53;;;;;;;;;;5127491;27;20084;-46
2022/11/28 05:43:15;;;;;;;280.40;63.10;;;;;;;;;;5128855;27;20037;-50
2022/11/28 05:45:42;;;;;;;275.85;62.63;;;;;;;;;;5127468;27;20035;-48
2022/11/28 05:48:09;;;;;;;174.38;50.47;;;;;;;;;;5129038;27;20050;-48
2022/11/28 05:50:37;;;;;;;189.63;52.45;;;;;;;;;;5125236;27;20386;-46
2022/11/28 05:53:05;;;;;;;171.52;48.42;;;;;;;;;;5127162;28;20050;-50
2022/11/28 05:55:32;;;;;;;180.30;51.33;;;;;;;;;;5125056;28;20044;-45
2022/11/28 05:57:59;;;;;;;177.77;52.35;;;;;;;;;;5127408;27;20459;-48
2022/11/28 06:00:25;;;;;;;238.90;61.55;;;;;;;;;;5128051;27;20035;-45
2022/11/28 06:02:51;;;;;;;158.02;51.70;;;;;;;;;;5130805;27;20047;-47
2022/11/28 06:05:24;;;;;;;185.85;54.30;;;;;;;;;;5131931;27;20059;-48
2022/11/28 06:08:08;;;;;;;238.02;61.15;;;;;;;;;;5130425;27;20038;-46
2022/11/28 06:10:35;;;;;;;222.52;57.38;;;;;;;;;;5131055;27;20065;-48
2022/11/28 06:13:01;;;;;;;187.45;53.03;;;;;;;;;;5131254;27;20035;-48
2022/11/28 06:15:31;;;;;;;221.65;57.10;;;;;;;;;;5130911;27;20139;-50
2022/11/28 06:18:03;;;;;;;209.88;58.47;;;;;;;;;;5124028;27;20039;-51
2022/11/28 06:20:30;;;;;;;176.45;52.50;;;;;;;;;;5129065;27;20039;-49
2022/11/28 06:22:56;;;;;;;176.55;51.28;;;;;;;;;;5131521;27;20113;-50
2022/11/28 06:25:23;;;;;;;186.02;53.35;;;;;;;;;;5131264;27;20045;-51
2022/11/28 06:27:49;;;;;;;175.38;53.63;;;;;;;;;;5132049;27;20502;-46
2022/11/28 06:30:16;;;;;;;187.02;50.10;;;;;;;;;;5131351;27;20494;-49
2022/11/28 06:32:42;;;;;;;175.73;53.33;;;;;;;;;;5113002;27;20049;-52
2022/11/28 06:35:09;;;;;;;175.23;52.42;;;;;;;;;;5131763;27;20039;-50
2022/11/28 06:37:35;;;;;;;175.15;54.60;;;;;;;;;;5132552;27;20515;-49
2022/11/28 06:40:02;;;;;;;187.35;55.67;;;;;;;;;;5130846;27;20039;-50
2022/11/28 06:42:29;;;;;;;199.77;54.13;;;;;;;;;;5132178;27;20271;-48
2022/11/28 06:44:55;;;;;;;171.95;53.38;;;;;;;;;;5132255;27;20045;-52
2022/11/28 06:47:22;;;;;;;185.88;56.30;;;;;;;;;;5132226;27;20391;-52
2022/11/28 06:49:48;;;;;;;228.88;59.22;;;;;;;;;;5113582;27;20046;-50
2022/11/28 06:52:15;;;;;;;171.43;57.35;;;;;;;;;;5132132;27;20047;-48
2022/11/28 06:54:41;;;;;;;172.98;55.42;;;;;;;;;;5131185;27;20090;-50
2022/11/28 06:57:08;;;;;;;215.20;60.35;;;;;;;;;;5130244;27;20482;-54
2022/11/28 06:59:34;;;;;;;151.35;48.83;;;;;;;;;;5130613;27;20055;-49
2022/11/28 07:02:02;;;;;;;159.88;51.67;;;;;;;;;;5130964;27;20039;-48
2022/11/28 07:04:33;;;;;;;171.25;51.78;;;;;;;;;;5130689;27;20054;-49
2022/11/28 07:06:59;;;;;;;159.20;49.67;;;;;;;;;;5127424;27;20039;-49
2022/11/28 07:09:26;;;;;;;163.77;48.90;;;;;;;;;;5131020;27;20039;-49
2022/11/28 07:11:52;;;;;;;172.20;50.20;;;;;;;;;;5131743;27;20043;-49
2022/11/28 07:14:19;;;;;;;161.70;47.55;;;;;;;;;;5127511;27;20038;-49
2022/11/28 07:16:47;;;;;;;139.20;45.40;;;;;;;;;;5131504;27;20555;-48
2022/11/28 07:19:14;;;;;;;146.77;43.88;;;;;;;;;;5130619;27;20059;-49
2022/11/28 07:21:41;;;;;;;150.35;45.03;;;;;;;;;;5131954;27;20074;-48
2022/11/28 07:24:07;;;;;;;131.30;42.05;;;;;;;;;;5132171;27;20054;-48
2022/11/28 07:26:36;;;;;;;131.82;41.78;;;;;;;;;;5131343;27;20047;-47
2022/11/28 07:29:05;;;;;;;132.10;44.45;;;;;;;;;;5128676;27;20039;-49
2022/11/28 07:31:32;;;;;;;121.57;41.33;;;;;;;;;;5131006;27;20035;-49
2022/11/28 07:34:00;;;;;;;129.13;40.65;;;;;;;;;;5130600;27;20426;-53
2022/11/28 07:36:27;;;;;;;167.82;48.58;;;;;;;;;;5130072;27;20035;-50
2022/11/28 07:38:54;;;;;;;137.00;43.55;;;;;;;;;;5131455;27;20046;-50
2022/11/28 07:41:22;;;;;;;147.23;43.78;;;;;;;;;;5125632;27;20055;-50
2022/11/28 07:43:53;;;;;;;146.00;46.03;;;;;;;;;;5127182;27;20472;-48
2022/11/28 07:46:19;;;;;;;155.10;46.90;;;;;;;;;;5130081;27;20035;-51
2022/11/28 07:48:47;;;;;;;181.25;49.50;;;;;;;;;;5126974;27;20047;-50
2022/11/28 07:51:21;;;;;;;151.30;45.53;;;;;;;;;;5129254;27;20035;-49
2022/11/28 07:53:48;;;;;;;154.98;46.33;;;;;;;;;;5128580;27;20495;-51
2022/11/28 07:56:16;;;;;;;151.60;43.53;;;;;;;;;;5127082;27;20046;-50
2022/11/28 07:58:43;;;;;;;141.85;42.47;;;;;;;;;;5128453;27;20529;-53
2022/11/28 08:01:15;;;;;;;149.77;42.78;;;;;;;;;;5123909;27;20031;-50
2022/11/28 08:03:43;;;;;;;149.73;43.08;;;;;;;;;;5125898;27;20097;-51
2022/11/28 08:06:10;;;;;;;128.90;41.95;;;;;;;;;;5124461;27;20039;-50
2022/11/28 08:08:36;;;;;;;137.10;42.03;;;;;;;;;;5127543;27;20110;-49
2022/11/28 08:11:04;;;;;;;135.60;41.92;;;;;;;;;;5128303;27;20050;-48
2022/11/28 08:13:31;;;;;;;135.07;42.47;;;;;;;;;;5129136;27;20054;-54
2022/11/28 08:15:57;;;;;;;131.02;42.38;;;;;;;;;;5128519;27;20035;-53
2022/11/28 08:18:24;;;;;;;139.18;42.20;;;;;;;;;;5129438;27;20078;-48
2022/11/28 08:20:51;;;;;;;108.82;38.13;;;;;;;;;;5125599;27;20038;-51
2022/11/28 08:23:20;;;;;;;137.30;40.45;;;;;;;;;;5126252;27;20043;-50
2022/11/28 08:25:46;;;;;;;115.97;37.95;;;;;;;;;;5125789;27;20043;-48
2022/11/28 08:28:13;;;;;;;118.05;40.85;;;;;;;;;;5126679;27;20118;-54
2022/11/28 08:30:39;;;;;;;139.93;40.75;;;;;;;;;;5128235;27;20049;-52
2022/11/28 08:33:06;;;;;;;130.07;40.92;;;;;;;;;;5125127;27;20135;-53
2022/11/28 08:35:32;;;;;;;141.15;45.03;;;;;;;;;;5117880;27;20042;-53
2022/11/28 08:37:59;;;;;;;143.75;42.53;;;;;;;;;;5118770;27;20118;-52
2022/11/28 08:40:27;;;;;;;125.78;39.33;;;;;;;;;;5120420;27;20059;-53
2022/11/28 08:42:54;;;;;;;138.90;42.78;;;;;;;;;;5127017;27;20046;-52
2022/11/28 08:45:21;;;;;;;118.70;40.03;;;;;;;;;;5130604;27;20049;-51
2022/11/28 08:47:47;;;;;;;124.80;41.35;;;;;;;;;;5128295;27;20394;-54
2022/11/28 08:50:14;;;;;;;179.75;45.75;;;;;;;;;;5127961;27;20043;-55
2022/11/28 08:52:40;;;;;;;118.00;37.55;;;;;;;;;;5121502;27;20043;-50
2022/11/28 08:55:07;;;;;;;135.10;40.92;;;;;;;;;;5120966;27;20419;-51
2022/11/28 08:57:34;;;;;;;152.65;43.03;;;;;;;;;;5121071;27;20045;-50
2022/11/28 09:00:00;;;;;;;126.65;42.80;;;;;;;;;;5125717;27;20055;-48
2022/11/28 09:02:27;;;;;;;156.40;44.17;;;;;;;;;;5121142;27;20047;-52
2022/11/28 09:04:53;;;;;;;132.43;41.80;;;;;;;;;;5127780;27;20088;-48
2022/11/28 09:07:21;;;;;;;112.97;37.58;;;;;;;;;;5128550;27;20187;-48
2022/11/28 09:09:48;;;;;;;138.38;42.22;;;;;;;;;;5128064;27;20042;-49
2022/11/28 09:12:15;;;;;;;118.35;39.63;;;;;;;;;;5129899;27;20491;-51
2022/11/28 09:14:42;;;;;;;122.55;39.40;;;;;;;;;;5128391;27;20054;-48
2022/11/28 09:17:08;;;;;;;119.70;39.85;;;;;;;;;;5123903;27;20042;-49
2022/11/28 09:19:35;;;;;;;110.22;37.08;;;;;;;;;;5127945;27;20043;-48
2022/11/28 09:22:01;;;;;;;107.45;37.50;;;;;;;;;;5127623;27;20031;-49
2022/11/28 09:24:28;;;;;;;123.53;40.70;;;;;;;;;;5124677;27;20051;-48
2022/11/28 09:26:54;;;;;;;123.68;40.17;;;;;;;;;;5128473;27;20474;-49
2022/11/28 09:29:21;;;;;;;107.63;37.85;;;;;;;;;;5127160;27;20047;-51
2022/11/28 09:31:47;;;;;;;109.47;37.38;;;;;;;;;;5127634;27;20039;-49
2022/11/28 09:34:14;;;;;;;131.45;41.97;;;;;;;;;;5126633;27;20047;-48
2022/11/28 09:36:40;;;;;;;123.03;38.45;;;;;;;;;;5128052;27;20118;-48
2022/11/28 09:39:07;;;;;;;120.60;39.22;;;;;;;;;;5123424;27;20581;-48
2022/11/28 09:41:42;;;;;;;111.47;37.17;;;;;;;;;;5126582;27;20035;-48
2022/11/28 09:44:14;;;;;;;98.30;36.20;;;;;;;;;;5126506;27;20039;-48
2022/11/28 09:46:41;;;;;;;121.53;37.75;;;;;;;;;;5128078;27;20039;-48
2022/11/28 09:49:37;;;;;;;88.03;32.38;;;;;;;;;;5123347;28;20040;-48
2022/11/28 09:52:06;;;;;;;96.30;34.10;;;;;;;;;;5023641;28;20046;-51
2022/11/28 09:54:45;;;;;;;94.05;33.25;;;;;;;;;;5023373;28;20778;-49
2022/11/28 09:57:16;;;;;;;89.97;31.58;;;;;;;;;;5025341;28;20116;-50
2022/11/28 09:59:44;;;;;;;89.07;31.13;;;;;;;;;;5024210;28;20477;-48
2022/11/28 10:02:25;;;;;;;82.15;32.50;;;;;;;;;;5007487;28;20041;-48
2022/11/28 10:05:03;;;;;;;82.88;31.98;;;;;;;;;;5023936;28;20096;-50
2022/11/28 10:07:48;;;;;;;93.53;33.92;;;;;;;;;;5023585;28;20153;-49
2022/11/28 10:10:26;;;;;;;87.80;33.22;;;;;;;;;;5023052;28;20140;-50
2022/11/28 10:13:01;;;;;;;123.18;35.25;;;;;;;;;;5024089;28;20052;-47
2022/11/28 10:15:47;;;;;;;82.22;32.85;;;;;;;;;;5024451;28;20092;-48
2022/11/28 10:18:19;;;;;;;112.03;34.65;;;;;;;;;;5024715;28;20045;-49
2022/11/28 10:20:47;;;;;;;78.18;30.38;;;;;;;;;;5024348;28;20057;-47
2022/11/28 10:23:16;;;;;;;86.72;31.30;;;;;;;;;;5022600;28;20560;-49
2022/11/28 10:25:48;;;;;;;82.38;29.65;;;;;;;;;;5020937;28;20053;-49
2022/11/28 10:28:17;;;;;;;75.97;29.02;;;;;;;;;;5062150;27;20092;-49
2022/11/28 10:30:46;;;;;;;110.57;33.58;;;;;;;;;;5127465;28;20035;-50
2022/11/28 10:33:20;;;;;;;81.38;32.13;;;;;;;;;;5128650;27;20035;-47
2022/11/28 10:35:57;;;;;;;82.70;31.35;;;;;;;;;;5126854;28;20092;-46
2022/11/28 10:38:24;;;;;;;;;;;;;;;;;;5127915;27;20039;-45
2022/11/28 10:40:56;;;;;;;80.43;29.67;;;;;;;;;;5127118;27;19924;-48
2022/11/28 10:43:26;;;;;;;96.25;31.80;;;;;;;;;;5128113;27;20039;-52
2022/11/28 10:46:04;;;;;;;87.47;32.10;;;;;;;;;;5129920;27;20039;-51
2022/11/28 10:48:34;;;;;;;88.07;32.08;;;;;;;;;;5130424;27;20043;-48
2022/11/28 10:51:15;;;;;;;89.07;33.65;;;;;;;;;;5131887;27;20099;-52
2022/11/28 10:53:42;;;;;;;83.72;32.03;;;;;;;;;;5129865;27;20047;-52
2022/11/28 10:56:09;;;;;;;88.82;33.22;;;;;;;;;;5130785;27;20050;-51
2022/11/28 10:58:48;;;;;;;89.97;32.08;;;;;;;;;;5130653;27;20120;-52
2022/11/28 11:01:15;;;;;;;117.07;35.53;;;;;;;;;;5130633;27;20039;-52
2022/11/28 11:03:41;;;;;;;103.70;35.33;;;;;;;;;;5131393;27;20043;-53
2022/11/28 11:06:08;;;;;;;75.57;31.58;;;;;;;;;;5131963;27;20065;-48
2022/11/28 11:08:36;;;;;;;95.57;34.67;;;;;;;;;;5130435;27;20036;-51
2022/11/28 11:11:14;;;;;;;90.65;34.05;;;;;;;;;;5130607;27;20031;-48
2022/11/28 11:13:59;;;;;;;115.55;37.90;;;;;;;;;;5130687;27;20512;-47
2022/11/28 11:16:44;;;;;;;102.68;35.88;;;;;;;;;;5128885;27;20039;-48
2022/11/28 11:19:22;;;;;;;109.40;37.83;;;;;;;;;;5129501;27;20027;-46
2022/11/28 11:22:07;;;;;;;107.40;36.88;;;;;;;;;;5126820;27;20497;-49
2022/11/28 11:24:33;;;;;;;173.38;43.83;;;;;;;;;;5123447;27;20044;-48
2022/11/28 11:27:13;;;;;;;88.53;35.65;;;;;;;;;;5127059;27;20046;-48
2022/11/28 11:29:40;;;;;;;100.25;36.05;;;;;;;;;;5129500;27;20047;-47
2022/11/28 11:32:28;;;;;;;87.95;35.17;;;;;;;;;;5129843;27;20035;-48
2022/11/28 11:34:56;;;;;;;97.15;34.75;;;;;;;;;;5128441;27;20838;-47
2022/11/28 11:37:23;;;;;;;94.60;34.95;;;;;;;;;;5128871;27;20045;-46
2022/11/28 11:39:50;;;;;;;90.85;33.63;;;;;;;;;;5128280;27;20124;-47
2022/11/28 11:42:27;;;;;;;91.63;33.95;;;;;;;;;;5131227;27;20031;-47
2022/11/28 11:44:54;;;;;;;90.88;35.58;;;;;;;;;;5130732;27;20070;-46
2022/11/28 11:47:38;;;;;;;96.45;35.22;;;;;;;;;;5126702;27;20043;-45
2022/11/28 11:50:05;;;;;;;91.10;33.63;;;;;;;;;;5129214;27;20043;-47
2022/11/28 11:52:31;;;;;;;109.82;36.67;;;;;;;;;;5129259;27;20039;-45
2022/11/28 11:55:01;;;;;;;94.95;33.97;;;;;;;;;;5126149;27;20035;-45
2022/11/28 11:57:38;;;;;;;90.72;33.75;;;;;;;;;;5129768;27;20043;-45
2022/11/28 12:00:05;;;;;;;82.13;31.42;;;;;;;;;;5130162;27;20050;-45
2022/11/28 12:02:42;;;;;;;88.28;31.75;;;;;;;;;;5126408;27;20055;-45
2022/11/28 12:05:17;;;;;;;80.15;31.00;;;;;;;;;;5126429;27;20039;-47
2022/11/28 12:07:56;;;;;;;120.68;34.80;;;;;;;;;;5125876;27;20038;-45
2022/11/28 12:10:25;;;;;;;102.72;33.40;;;;;;;;;;5127456;27;20054;-45
2022/11/28 12:12:51;;;;;;;101.60;33.22;;;;;;;;;;5129307;27;20202;-46
2022/11/28 12:15:39;;;;;;;95.47;34.58;;;;;;;;;;5130964;27;20047;-46
2022/11/28 12:18:28;;;;;;;101.03;32.35;;;;;;;;;;5128095;27;20035;-46
2022/11/28 12:21:04;;;;;;;95.03;34.20;;;;;;;;;;5109854;27;20081;-47
2022/11/28 12:23:31;;;;;;;97.90;34.40;;;;;;;;;;5124689;27;20047;-46
2022/11/28 12:26:20;;;;;;;85.40;30.27;;;;;;;;;;5128586;27;20038;-46
2022/11/28 12:28:47;;;;;;;95.05;31.27;;;;;;;;;;5025221;28;20172;-45
2022/11/28 12:31:22;;;;;;;114.80;34.88;;;;;;;;;;5025194;28;20057;-44
2022/11/28 12:33:48;;;;;;;121.93;37.10;;;;;;;;;;5025543;28;20057;-45
2022/11/28 12:36:15;;;;;;;108.10;38.38;;;;;;;;;;5024858;28;20041;-45
2022/11/28 12:39:13;;;;;;;100.72;35.47;;;;;;;;;;5009189;28;20504;-44
2022/11/28 12:41:40;;;;;;;94.03;29.85;;;;;;;;;;4959483;28;20051;-46
2022/11/28 12:44:28;;;;;;;97.70;33.25;;;;;;;;;;4958611;28;20046;-44
2022/11/28 12:47:13;;;;;;;110.43;33.05;;;;;;;;;;4956992;28;20066;-47
2022/11/28 12:49:43;;;;;;;125.97;39.40;;;;;;;;;;4962820;28;20045;-48
2022/11/28 12:52:28;;;;;;;111.55;36.38;;;;;;;;;;4959444;28;20464;-50
2022/11/28 12:54:57;;;;;;;126.30;42.22;;;;;;;;;;4959664;28;20042;-46
2022/11/28 12:57:38;;;;;;;159.73;46.20;;;;;;;;;;4957905;28;20142;-45
2022/11/28 13:00:08;;;;;;;109.65;33.97;;;;;;;;;;4955418;28;20047;-45
2022/11/28 13:02:44;;;;;;;124.03;35.47;;;;;;;;;;4959219;28;20063;-45
2022/11/28 13:05:13;;;;;;;103.38;31.90;;;;;;;;;;4974604;28;20433;-46
2022/11/28 13:08:02;;;;;;;109.80;31.80;;;;;;;;;;5018803;28;20038;-44
2022/11/28 13:10:52;;;;;;;115.70;31.73;;;;;;;;;;5028782;28;20065;-49
2022/11/28 13:13:21;;;;;;;130.75;34.63;;;;;;;;;;5031150;28;20119;-44
2022/11/28 13:16:14;;;;;;;133.35;34.20;;;;;;;;;;5033111;28;20048;-46
2022/11/28 13:19:00;;;;;;;131.65;34.83;;;;;;;;;;5116853;27;20503;-44
2022/11/28 13:21:26;;;;;;;106.88;30.05;;;;;;;;;;5127327;27;20044;-44
2022/11/28 13:24:08;;;;;;;135.15;35.40;;;;;;;;;;5126856;27;20471;-45
2022/11/28 13:26:48;;;;;;;135.35;35.30;;;;;;;;;;5126430;27;20050;-46
2022/11/28 13:29:24;;;;;;;117.72;33.97;;;;;;;;;;5127559;27;20110;-45
2022/11/28 13:31:57;;;;;;;115.70;29.85;;;;;;;;;;5124582;27;20047;-45
2022/11/28 13:34:28;;;;;;;122.20;34.17;;;;;;;;;;5126471;27;20080;-44
2022/11/28 13:37:03;;;;;;;114.40;33.03;;;;;;;;;;5127698;27;20054;-45
2022/11/28 13:39:55;;;;;;;127.88;36.28;;;;;;;;;;5126888;27;21006;-42
2022/11/28 13:42:33;;;;;;;108.57;34.10;;;;;;;;;;5125720;27;20049;-48
2022/11/28 13:45:25;;;;;;;142.07;39.50;;;;;;;;;;5127125;27;20035;-44
2022/11/28 13:48:28;;;;;;;116.78;39.50;;;;;;;;;;5125294;27;20110;-44
2022/11/28 13:51:17;;;;;;;128.23;39.40;;;;;;;;;;5125423;27;20050;-44
2022/11/28 13:54:08;;;;;;;114.93;36.15;;;;;;;;;;5123451;27;20053;-43
2022/11/28 13:56:34;;;;;;;130.77;37.53;;;;;;;;;;5105552;27;20050;-44
2022/11/28 13:59:02;;;;;;;117.00;39.33;;;;;;;;;;5126551;27;20491;-45
2022/11/28 14:01:41;;;;;;;109.65;37.67;;;;;;;;;;5122957;28;20024;-44
2022/11/28 14:04:09;;;;;;;134.32;38.25;;;;;;;;;;5124417;27;20051;-43
2022/11/28 14:06:43;;;;;;;126.70;36.65;;;;;;;;;;5125582;27;20047;-43
2022/11/28 14:09:10;;;;;;;111.18;32.53;;;;;;;;;;5102810;28;20042;-42
2022/11/28 14:11:40;;;;;;;111.53;34.92;;;;;;;;;;5125961;27;20046;-45
2022/11/28 14:14:06;;;;;;;87.50;31.77;;;;;;;;;;5127900;27;20449;-43
2022/11/28 14:16:42;;;;;;;127.43;36.97;;;;;;;;;;5127339;27;20142;-43
2022/11/28 14:19:16;;;;;;;;;;;;;;;;;;5126712;27;20072;-41
2022/11/28 14:22:06;;;;;;;148.57;35.65;;;;;;;;;;5130261;27;19972;-47
2022/11/28 14:24:44;;;;;;;112.07;33.08;;;;;;;;;;5105887;27;20050;-43
2022/11/28 14:27:16;;;;;;;126.25;35.92;;;;;;;;;;5111171;27;20085;-44